• Join FlightAware (Why Join?)
  • Login
  • US Flag 
12:50PM EDT


 

Airport Tracker/Info


-or-


 

Live Flight TrackerFlight Track Log ✈ BOE2 ✈ 09-Mar-2010 ✈ KBFI - KVCV

Flight Track Log - Related Links

Times and Time Zones

All times are in EST time to prevent confusion due to time zone crossing. See the BOE2 flight status page for this flight to view local times or setup timezone preferences in your user account.

Time Position Orientation Groundspeed Altitude Reporting Facility
EST Latitude Longitude Course Direction KTS MPH feet Rate Location/Type
11:42AM 47.5169 -122.2940 140° Southeast 153 176 1,400  Level
11:42AM 47.4989 -122.2720 146° Southeast 192 221 2,400 2,580 Climbing C
11:43AM 47.4642 -122.2370 145° Southeast 224 258 4,600 3,300 Climbing C
11:43AM 47.4458 -122.2180 160° South 254 292 5,700 3,240 Climbing C
11:44AM 47.3819 -122.1840 175° South 275 316 8,700 3,000 Climbing C
11:45AM 47.3053 -122.1750 174° South 275 316 11,800 3,180 Climbing C
11:46AM 47.2242 -122.1620 173° South 275 316 15,100 3,000 Climbing C
11:47AM 47.1414 -122.1460 179° South 286 329 17,900 2,760 Climbing C
11:48AM 47.0561 -122.1430 173° South 300 345 20,700 2,580 Climbing C
11:49AM 46.9669 -122.1260 164° South 313 360 23,100 2,340 Climbing C
11:50AM 46.8761 -122.0890 165° South 332 382 25,400 1,920 Climbing C
11:51AM 46.7811 -122.0520 166° South 344 396 27,000 780 Climbing Seattle Center
11:52AM 46.6817 -122.0150 165° South 355 409 27,000  Level Seattle Center
11:53AM 46.5889 -121.9780 165° South 355 409 27,000  Level Seattle Center
11:54AM 46.5019 -121.9440 164° South 355 409 27,000  Level Seattle Center
11:55AM 46.4069 -121.9040 167° South 355 409 27,000  Level Seattle Center
11:56AM 46.3097 -121.8710 166° South 355 409 27,000  Level Seattle Center
11:57AM 46.2144 -121.8370 166° South 355 409 27,000  Level Seattle Center
11:58AM 46.1172 -121.8010 165° South 355 409 27,000  Level Seattle Center
11:59AM 46.0200 -121.7640 167° South 361 415 27,000  Level Seattle Center
12:00PM 45.9225 -121.7310 164° South 356 410 27,000  Level Seattle Center
12:01PM 45.8275 -121.6920 166° South 356 410 27,000  Level Seattle Center
12:02PM 45.7258 -121.6560 164° South 356 410 27,000  Level Seattle Center
12:03PM 45.6308 -121.6170 166° South 361 415 27,000  Level Seattle Center
12:04PM 45.5292 -121.5810 166° South 366 421 27,000  Level Seattle Center
12:05PM 45.4297 -121.5460 163° South 366 421 27,000  Level Seattle Center
12:06PM 45.3306 -121.5040 166° South 372 428 27,000  Level Seattle Center
12:07PM 45.2308 -121.4690 165° South 372 428 27,000  Level Seattle Center
12:08PM 45.1192 -121.4270 165° South 372 428 27,000  Level Seattle Center
12:09PM 45.0217 -121.3890 166° South 372 428 27,000  Level Seattle Center
12:10PM 44.9200 -121.3540 165° South 372 428 27,000  Level Seattle Center
12:11PM 44.8206 -121.3160 167° South 372 428 27,000  Level Seattle Center
12:12PM 44.7189 -121.2820 165° South 372 428 27,000  Level Seattle Center
12:13PM 44.6361 -121.2500 165° South 372 428 27,000  Level Seattle Center
12:14PM 44.5303 -121.2100 166° South 372 428 27,000  Level Seattle Center
12:15PM 44.4306 -121.1750 166° South 372 428 27,000  Level Seattle Center
12:16PM 44.3164 -121.1350 166° South 384 442 27,000  Level Seattle Center
12:17PM 44.2128 -121.0980 167° South 389 448 27,000  Level Seattle Center
12:18PM 44.1111 -121.0640 165° South 389 448 27,000  Level Seattle Center
12:19PM 44.0094 -121.0270 166° South 389 448 27,000  Level Seattle Center
12:20PM 43.9036 -120.9900 166° South 389 448 27,000  Level Seattle Center
12:21PM 43.8017 -120.9540 164° South 389 448 27,000  Level Seattle Center
12:22PM 43.6981 -120.9140 167° South 389 448 27,000  Level Seattle Center
12:23PM 43.5942 -120.8810 168° South 389 448 27,000 -60 Level Seattle Center
12:24PM 43.4922 -120.8500 167° South 389 448 26,900 -60 Descending Seattle Center
12:25PM 43.3883 -120.8170 164° South 389 448 26,900  Level Seattle Center
12:26PM 43.2867 -120.7780 166° South 389 448 27,000  Climbing Seattle Center
12:27PM 43.1828 -120.7420 166° South 389 448 27,000  Level Seattle Center
12:28PM 43.0808 -120.7070 167° South 389 448 27,000 -60 Level Seattle Center
12:29PM 42.9769 -120.6740 165° South 389 448 26,900  Descending Seattle Center
12:30PM 42.8708 -120.6360 166° South 394 453 27,000  Climbing Seattle Center
12:31PM 42.7650 -120.6000 165° South 394 453 27,000 -60 Level Seattle Center
12:32PM 42.6611 -120.5620 168° South 389 448 26,900 -60 Descending Seattle Center
12:33PM 42.5528 -120.5300 167° South 389 448 26,900  Level Seattle Center
12:34PM 42.4489 -120.4970 167° South 389 448 27,000  Climbing Seattle Center
12:35PM 42.3533 -120.4680 168° South 395 455 26,900 -60 Descending Seattle Center
12:36PM 42.2450 -120.4360 167° South 395 455 26,900  Level Seattle Center
12:37PM 42.1389 -120.4040 167° South 395 455 26,900  Level Seattle Center
12:38PM 42.0328 -120.3720 167° South 395 455 26,900  Level Seattle Center
12:39PM 41.9267 -120.3380 169° South 395 455 27,000  Climbing Seattle Center
12:40PM 41.8164 -120.3090 167° South 395 455 27,000  Level Seattle Center
12:41PM 41.7083 -120.2750 168° South 395 455 27,000  Level Seattle Center
12:42PM 41.5981 -120.2440 167° South 395 455 27,000  Level Seattle Center
12:43PM 41.4939 -120.2130 167° South 395 455 27,000 -60 Level Seattle Center
12:44PM 41.3836 -120.1790 168° South 395 455 26,900  Descending Seattle Center
12:45PM 41.2289 -120.1370 168° South 405 466 27,000  Climbing Oakland Center
12:46PM 41.1183 -120.1060 166° South 405 466 27,000 -60 Level Oakland Center
12:47PM 41.0097 -120.0710 171° South 405 466 26,900  Descending Oakland Center
12:48PM 40.8950 -120.0460 167° South 412 474 27,000  Climbing Oakland Center
12:49PM 40.7822 -120.0110 167° South 412 474 26,900 -60 Descending Oakland Center
12:50PM 40.6714 -119.9770 169° South 412 474 26,900  Level Oakland Center
12:51PM 40.5628 -119.9490 168° South 407 468 26,900  Level Oakland Center
12:52PM 40.4481 -119.9180 166° South 413 475 27,000  Climbing Oakland Center
12:53PM 40.3372 -119.8810 167° South 413 475 27,000  Level Oakland Center
12:54PM 40.2264 -119.8480 167° South 413 475 27,000  Level Oakland Center
12:55PM 40.1136 -119.8140 171° South 413 475 27,000  Level Oakland Center
12:56PM 39.9986 -119.7890 167° South 413 475 27,000  Level Oakland Center
12:57PM 39.8858 -119.7560 168° South 413 475 27,000  Level Oakland Center
12:59PM 39.7708 -119.7230 168° South 413 475 27,000  Level Oakland Center
12:59PM 39.6578 -119.6920 169° South 413 475 27,000  Level Oakland Center
01:00PM 39.5428 -119.6620 173° South 413 475 27,000  Level Oakland Center
01:01PM 39.4258 -119.6430 173° South 418 481 27,000  Level Oakland Center
01:02PM 39.3089 -119.6240 174° South 423 487 27,000  Level Oakland Center
01:04PM 39.1897 -119.6070 174° South 429 494 27,000  Level Oakland Center
01:04PM 39.0728 -119.5910 174° South 429 494 27,000  Level Oakland Center
01:06PM 38.9539 -119.5740 174° South 429 494 27,000  Level Oakland Center
01:06PM 38.8453 -119.5600 173° South 429 494 27,000  Level Oakland Center
01:07PM 38.7261 -119.5410 173° South 429 494 27,000  Level Oakland Center
01:08PM 38.6069 -119.5220 174° South 429 494 27,000  Level Oakland Center
01:09PM 38.4878 -119.5060 173° South 429 494 27,000  Level Oakland Center
01:10PM 38.3625 -119.4850 173° South 424 488 27,000  Level Oakland Center
01:11PM 38.2414 -119.4660 173° South 424 488 27,000  Level Oakland Center
01:12PM 38.1200 -119.4480 174° South 435 501 27,000  Level Oakland Center
01:14PM 37.9989 -119.4320 174° South 435 501 27,000  Level Oakland Center
01:15PM 37.8778 -119.4160 173° South 441 507 27,000  Level Oakland Center
01:15PM 37.7564 -119.3970 173° South 446 513 27,000  Level Oakland Center
01:16PM 37.6331 -119.3790 177° South 446 513 27,000  Level Oakland Center
01:17PM 37.5100 -119.3710 174° South 441 507 27,000  Level Oakland Center
01:18PM 37.3867 -119.3560 173° South 441 507 27,000  Level Oakland Center
01:20PM 37.2633 -119.3370 173° South 446 513 27,000  Level Oakland Center
01:20PM 37.1419 -119.3190 173° South 446 513 27,000  Level Oakland Center
01:21PM 37.0186 -119.3010 175° South 446 513 27,000  Level Oakland Center
01:22PM 36.8975 -119.2880 173° South 446 513 27,000  Level Oakland Center
01:23PM 36.7742 -119.2700 173° South 446 513 27,000  Level Oakland Center
01:24PM 36.6508 -119.2520 174° South 446 513 27,000  Level Oakland Center
01:25PM 36.5683 -119.2420 174° South 443 510 27,000  Level Los Angeles Center
01:26PM 36.4436 -119.2270 172° South 462 532 27,000  Level Los Angeles Center
01:27PM 36.3231 -119.2060 174° South 455 524 27,000  Level Los Angeles Center
01:28PM 36.2003 -119.1910 174° South 450 518 27,000  Level Los Angeles Center
01:29PM 36.0756 -119.1760 173° South 450 518 27,000 -360 Level
01:30PM 35.9550 -119.1590 174° South 445 512 26,300 -900 Descending D
01:31PM 35.8364 -119.1440 173° South 440 506 25,300 -1,020 Descending D
01:32PM 35.7200 -119.1270 175° South 434 499 24,300 -1,080 Descending D
01:33PM 35.6078 -119.1150 172° South 422 486 23,200 -1,080 Descending D
01:34PM 35.4956 -119.0960 144° Southeast 422 486 22,200 -1,020 Descending D
01:35PM 35.4036 -119.0140 139° Southeast 393 452 21,200 -900 Descending D
01:36PM 35.3181 -118.9240 141° Southeast 398 458 20,500 -960 Descending D
01:37PM 35.2322 -118.8400 140° Southeast 403 464 19,300 -1,260 Descending D
01:38PM 35.1486 -118.7530 141° Southeast 403 464 18,000 -1,200 Descending D
01:39PM 35.0647 -118.6690 136° Southeast 392 451 16,900 -1,140 Descending D
01:40PM 34.9894 -118.5810 131° Southeast 382 440 15,800 -1,080 Descending D
01:41PM 34.9244 -118.4900 131° Southeast 369 425 14,800 -780 Descending D
01:42PM 34.8636 -118.4050 129° Southeast 353 406 14,300 -600 Descending D
01:43PM 34.8086 -118.3220 132° Southeast 341 392 13,600 -1,080 Descending D
01:44PM 34.7517 -118.2450 129° Southeast 320 368 12,200 -1,200 Descending D
01:45PM 34.6986 -118.1650 93° East 307 353 11,300 -720 Descending D
01:46PM 34.6939 -118.0720 85° East 277 319 10,800 -840 Descending D
01:47PM 34.6994 -117.9880 87° East 277 319 9,700 -1,620 Descending D
01:48PM 34.7028 -117.9000 87° East 267 307 7,600 -1,800 Descending D
01:49PM 34.7061 -117.8140 87° East 262 302 6,100 -1,500 Descending D